Airfield :
LOGIN :

Register | Disclaimer

   EN    FR    IT 

 










Legend :    VFR   Marginal VFR   IFR   Intensive IFR   Very Intensive IFR
Visi :
Ceiling :
>= 8 km
>= 3000ft
5 to 8 km
1000 to 3000 ft
1500m to 5 km
500 to 1000 ft
800 to 1500m
200 to 500 ft
< 800m
< 200 ft
Symbols :   Thunderstorms  Fog  Heavy snow  Heavy precipitations  Wind > 20 kt
SIGMETs :     Misc.  Thunderstorms  Icing  Turbulence  Mountain Waves  Volcanic Ashes






- Airport Elevation : 526 ft
- IATA code : LTN


EGGW - London Luton

CURRENT METAR :
  • 150920Z AUTO 22004KT 9999 OVC006 11/10 Q1004

EXPIRED METARs :
  • 150850Z AUTO 25006KT 9999 OVC006 10/09 Q1004
  • 150820Z AUTO 26007KT 9999 OVC006 10/09 Q1004
  • 150750Z AUTO 24007KT 9999 OVC005 10/09 Q1003
  • 150720Z AUTO 24009KT 9999 OVC006 09/09 Q1003
  • 150650Z AUTO 24007KT 9999 OVC005 09/09 Q1003

TAF TAF EGGW
Valid from the 15 at 06:00 until the 16 at 06:00 UTC


150459Z 1506/1606 22006KT 9999 SCT003 BKN010
TEMPO 1506/1511 6000 BKN003
PROB30
TEMPO 1506/1509 3000 -RADZ BR
BECMG 1511/1513 FEW010 SCT020
PROB30
TEMPO 1513/1518 8000 SHRA
BECMG 1600/1603 16010KT 8000 -RA BKN009
TEMPO 1603/1606 17015G25KT 4000 RADZ BKN004
ATIS : +44 1582 395 204



MET'MAP, your aeronautical weather chart ! - Copyright ORBIFLY December 2007 - Disclaimer

ORBIFLY MET'MAP TEAM :

Programming & Development : Alexandra Zaïnal
Concept & Development : Baudouin d'Aumeries
Co-Development & Prog : Marc-Olivier Méhu
Technical & hardware support : Manuel Goepfert

Contact : metmap@orbifly.com




SOURCES & CREDITS :

   NOAA